sensor_id;sensor_type;location;lat;lon;timestamp;P1;durP1;ratioP1;P2;durP2;ratioP2
69847;SDS011;57143;55.940;37.496;2024-03-23T00:54:18;32.22;;;15.77;;
69847;SDS011;57143;55.940;37.496;2024-03-23T00:56:44;44.70;;;18.05;;
69847;SDS011;57143;55.940;37.496;2024-03-23T00:59:11;35.83;;;16.60;;
69847;SDS011;57143;55.940;37.496;2024-03-23T01:01:39;44.95;;;20.35;;
69847;SDS011;57143;55.940;37.496;2024-03-23T01:04:06;33.57;;;15.37;;
69847;SDS011;57143;55.940;37.496;2024-03-23T01:06:33;36.47;;;14.13;;
69847;SDS011;57143;55.940;37.496;2024-03-23T01:09:00;34.13;;;13.88;;
69847;SDS011;57143;55.940;37.496;2024-03-23T01:11:28;32.75;;;13.85;;
69847;SDS011;57143;55.940;37.496;2024-03-23T01:13:55;28.67;;;11.20;;
69847;SDS011;57143;55.940;37.496;2024-03-23T01:16:22;26.50;;;10.20;;
69847;SDS011;57143;55.940;37.496;2024-03-23T01:18:49;28.20;;;12.07;;
69847;SDS011;57143;55.940;37.496;2024-03-23T01:21:15;32.42;;;13.07;;
69847;SDS011;57143;55.940;37.496;2024-03-23T01:23:43;21.45;;;9.00;;
69847;SDS011;57143;55.940;37.496;2024-03-23T01:26:09;40.03;;;14.77;;
69847;SDS011;57143;55.940;37.496;2024-03-23T01:28:38;29.50;;;11.87;;
69847;SDS011;57143;55.940;37.496;2024-03-23T01:31:05;27.08;;;12.00;;
69847;SDS011;57143;55.940;37.496;2024-03-23T01:33:32;33.33;;;13.52;;
69847;SDS011;57143;55.940;37.496;2024-03-23T01:35:58;35.63;;;15.57;;
69847;SDS011;57143;55.940;37.496;2024-03-23T01:38:26;36.78;;;15.45;;
69847;SDS011;57143;55.940;37.496;2024-03-23T01:40:56;37.80;;;16.03;;
69847;SDS011;57143;55.940;37.496;2024-03-23T01:43:24;49.78;;;18.17;;
69847;SDS011;57143;55.940;37.496;2024-03-23T01:45:51;50.33;;;18.83;;
69847;SDS011;57143;55.940;37.496;2024-03-23T01:48:19;63.15;;;22.52;;
69847;SDS011;57143;55.940;37.496;2024-03-23T01:50:46;53.03;;;20.63;;
69847;SDS011;57143;55.940;37.496;2024-03-23T01:53:14;73.43;;;23.13;;
69847;SDS011;57143;55.940;37.496;2024-03-23T01:55:43;76.45;;;22.13;;
69847;SDS011;57143;55.940;37.496;2024-03-23T01:58:10;51.60;;;18.25;;
69847;SDS011;57143;55.940;37.496;2024-03-23T02:00:37;58.90;;;20.70;;
69847;SDS011;57143;55.940;37.496;2024-03-23T02:05:50;38.57;;;16.07;;
69847;SDS011;57143;55.940;37.496;2024-03-23T02:08:18;63.30;;;21.58;;
69847;SDS011;57143;55.940;37.496;2024-03-23T02:10:45;55.55;;;19.83;;
69847;SDS011;57143;55.940;37.496;2024-03-23T02:13:14;66.47;;;22.05;;
69847;SDS011;57143;55.940;37.496;2024-03-23T02:15:40;41.88;;;18.27;;
69847;SDS011;57143;55.940;37.496;2024-03-23T02:18:29;77.67;;;26.90;;
69847;SDS011;57143;55.940;37.496;2024-03-23T02:20:56;86.60;;;30.77;;
69847;SDS011;57143;55.940;37.496;2024-03-23T02:23:24;74.80;;;29.00;;
69847;SDS011;57143;55.940;37.496;2024-03-23T02:25:51;83.78;;;32.58;;
69847;SDS011;57143;55.940;37.496;2024-03-23T02:28:19;91.05;;;36.25;;
69847;SDS011;57143;55.940;37.496;2024-03-23T02:30:45;64.33;;;27.20;;
69847;SDS011;57143;55.940;37.496;2024-03-23T02:33:12;66.80;;;25.83;;
69847;SDS011;57143;55.940;37.496;2024-03-23T02:35:39;57.17;;;24.20;;
69847;SDS011;57143;55.940;37.496;2024-03-23T02:38:06;66.60;;;27.20;;
69847;SDS011;57143;55.940;37.496;2024-03-23T02:40:34;55.53;;;23.02;;
69847;SDS011;57143;55.940;37.496;2024-03-23T02:43:02;61.90;;;24.43;;
69847;SDS011;57143;55.940;37.496;2024-03-23T02:45:29;59.42;;;24.85;;
69847;SDS011;57143;55.940;37.496;2024-03-23T02:47:56;57.47;;;24.63;;
69847;SDS011;57143;55.940;37.496;2024-03-23T02:50:22;58.97;;;22.70;;
69847;SDS011;57143;55.940;37.496;2024-03-23T02:52:50;61.30;;;26.02;;
69847;SDS011;57143;55.940;37.496;2024-03-23T02:55:16;60.53;;;23.27;;
69847;SDS011;57143;55.940;37.496;2024-03-23T02:57:46;51.95;;;22.58;;
69847;SDS011;57143;55.940;37.496;2024-03-23T03:00:12;62.42;;;25.23;;
69847;SDS011;57143;55.940;37.496;2024-03-23T03:02:40;46.85;;;21.08;;
69847;SDS011;57143;55.940;37.496;2024-03-23T03:05:06;51.83;;;21.10;;
69847;SDS011;57143;55.940;37.496;2024-03-23T03:07:35;41.30;;;19.23;;
69847;SDS011;57143;55.940;37.496;2024-03-23T03:10:03;41.35;;;17.50;;
69847;SDS011;57143;55.940;37.496;2024-03-23T03:12:32;38.92;;;15.00;;
69847;SDS011;57143;55.940;37.496;2024-03-23T03:14:59;24.98;;;10.95;;
69847;SDS011;57143;55.940;37.496;2024-03-23T03:17:27;36.88;;;15.98;;
69847;SDS011;57143;55.940;37.496;2024-03-23T03:19:53;40.50;;;17.50;;
69847;SDS011;57143;55.940;37.496;2024-03-23T03:22:21;32.92;;;15.27;;
69847;SDS011;57143;55.940;37.496;2024-03-23T03:24:48;38.70;;;17.48;;
69847;SDS011;57143;55.940;37.496;2024-03-23T03:27:15;37.25;;;16.80;;
69847;SDS011;57143;55.940;37.496;2024-03-23T03:29:41;38.10;;;17.75;;
69847;SDS011;57143;55.940;37.496;2024-03-23T03:32:10;43.70;;;18.50;;
69847;SDS011;57143;55.940;37.496;2024-03-23T03:34:37;40.88;;;16.95;;
69847;SDS011;57143;55.940;37.496;2024-03-23T03:37:04;33.08;;;14.52;;
69847;SDS011;57143;55.940;37.496;2024-03-23T03:39:31;41.42;;;17.50;;
69847;SDS011;57143;55.940;37.496;2024-03-23T03:41:58;33.13;;;14.63;;
69847;SDS011;57143;55.940;37.496;2024-03-23T03:44:26;41.27;;;17.30;;
69847;SDS011;57143;55.940;37.496;2024-03-23T03:46:53;41.92;;;18.23;;
69847;SDS011;57143;55.940;37.496;2024-03-23T03:49:21;35.53;;;15.48;;
69847;SDS011;57143;55.940;37.496;2024-03-23T03:51:48;48.95;;;19.73;;
69847;SDS011;57143;55.940;37.496;2024-03-23T03:54:14;39.67;;;14.48;;
69847;SDS011;57143;55.940;37.496;2024-03-23T03:56:42;47.20;;;19.43;;
69847;SDS011;57143;55.940;37.496;2024-03-23T03:59:08;32.15;;;14.07;;
69847;SDS011;57143;55.940;37.496;2024-03-23T04:01:36;41.38;;;16.75;;
69847;SDS011;57143;55.940;37.496;2024-03-23T04:04:02;30.65;;;12.27;;
69847;SDS011;57143;55.940;37.496;2024-03-23T04:06:31;31.23;;;12.48;;
69847;SDS011;57143;55.940;37.496;2024-03-23T04:08:58;33.53;;;13.43;;
69847;SDS011;57143;55.940;37.496;2024-03-23T04:11:26;30.23;;;12.68;;
69847;SDS011;57143;55.940;37.496;2024-03-23T04:13:52;28.88;;;11.77;;
69847;SDS011;57143;55.940;37.496;2024-03-23T04:16:24;30.80;;;12.32;;
69847;SDS011;57143;55.940;37.496;2024-03-23T04:18:52;29.02;;;11.43;;
69847;SDS011;57143;55.940;37.496;2024-03-23T04:21:19;26.37;;;12.83;;
69847;SDS011;57143;55.940;37.496;2024-03-23T04:23:47;24.73;;;12.35;;
69847;SDS011;57143;55.940;37.496;2024-03-23T04:26:15;22.90;;;10.82;;
69847;SDS011;57143;55.940;37.496;2024-03-23T04:28:41;30.35;;;12.27;;
69847;SDS011;57143;55.940;37.496;2024-03-23T04:31:09;26.77;;;11.55;;
69847;SDS011;57143;55.940;37.496;2024-03-23T04:33:36;28.17;;;11.53;;
69847;SDS011;57143;55.940;37.496;2024-03-23T04:36:03;29.58;;;12.73;;
69847;SDS011;57143;55.940;37.496;2024-03-23T04:38:30;33.40;;;14.02;;
69847;SDS011;57143;55.940;37.496;2024-03-23T04:40:59;23.45;;;10.10;;
69847;SDS011;57143;55.940;37.496;2024-03-23T04:43:27;28.35;;;12.23;;
69847;SDS011;57143;55.940;37.496;2024-03-23T04:45:55;34.77;;;13.07;;
69847;SDS011;57143;55.940;37.496;2024-03-23T04:48:21;30.98;;;11.98;;
69847;SDS011;57143;55.940;37.496;2024-03-23T04:50:49;30.38;;;13.63;;
69847;SDS011;57143;55.940;37.496;2024-03-23T04:53:21;23.23;;;10.50;;
69847;SDS011;57143;55.940;37.496;2024-03-23T04:55:50;27.27;;;9.63;;
69847;SDS011;57143;55.940;37.496;2024-03-23T04:58:18;30.13;;;11.50;;
69847;SDS011;57143;55.940;37.496;2024-03-23T05:00:45;27.27;;;9.77;;
69847;SDS011;57143;55.940;37.496;2024-03-23T05:03:11;29.70;;;12.40;;
69847;SDS011;57143;55.940;37.496;2024-03-23T05:05:39;23.42;;;11.20;;
69847;SDS011;57143;55.940;37.496;2024-03-23T05:08:06;28.42;;;10.93;;
69847;SDS011;57143;55.940;37.496;2024-03-23T05:10:34;26.77;;;10.73;;
69847;SDS011;57143;55.940;37.496;2024-03-23T05:13:00;32.45;;;12.18;;
69847;SDS011;57143;55.940;37.496;2024-03-23T05:15:29;32.40;;;12.25;;
69847;SDS011;57143;55.940;37.496;2024-03-23T05:17:55;28.60;;;11.70;;
69847;SDS011;57143;55.940;37.496;2024-03-23T05:20:23;23.55;;;9.60;;
69847;SDS011;57143;55.940;37.496;2024-03-23T05:22:49;28.20;;;11.80;;
69847;SDS011;57143;55.940;37.496;2024-03-23T05:25:17;32.08;;;12.80;;
69847;SDS011;57143;55.940;37.496;2024-03-23T05:27:43;25.02;;;10.07;;
69847;SDS011;57143;55.940;37.496;2024-03-23T05:30:11;22.80;;;9.68;;
69847;SDS011;57143;55.940;37.496;2024-03-23T05:32:39;29.45;;;11.70;;
69847;SDS011;57143;55.940;37.496;2024-03-23T05:35:07;30.53;;;12.73;;
69847;SDS011;57143;55.940;37.496;2024-03-23T05:37:35;26.27;;;11.55;;
69847;SDS011;57143;55.940;37.496;2024-03-23T05:40:03;26.27;;;11.25;;
69847;SDS011;57143;55.940;37.496;2024-03-23T05:42:30;28.25;;;12.73;;
69847;SDS011;57143;55.940;37.496;2024-03-23T05:44:57;26.13;;;9.98;;
69847;SDS011;57143;55.940;37.496;2024-03-23T05:47:24;32.17;;;12.23;;
69847;SDS011;57143;55.940;37.496;2024-03-23T05:49:53;25.67;;;11.32;;
69847;SDS011;57143;55.940;37.496;2024-03-23T05:52:19;18.73;;;8.50;;
69847;SDS011;57143;55.940;37.496;2024-03-23T05:54:47;24.08;;;10.32;;
69847;SDS011;57143;55.940;37.496;2024-03-23T05:57:13;25.40;;;10.90;;
69847;SDS011;57143;55.940;37.496;2024-03-23T05:59:41;20.03;;;8.40;;
69847;SDS011;57143;55.940;37.496;2024-03-23T06:02:07;20.58;;;8.30;;
69847;SDS011;57143;55.940;37.496;2024-03-23T06:04:36;25.15;;;10.52;;
69847;SDS011;57143;55.940;37.496;2024-03-23T06:07:04;24.55;;;11.35;;
69847;SDS011;57143;55.940;37.496;2024-03-23T06:09:32;23.05;;;8.77;;
69847;SDS011;57143;55.940;37.496;2024-03-23T06:11:58;19.57;;;8.83;;
69847;SDS011;57143;55.940;37.496;2024-03-23T06:14:46;18.50;;;8.15;;
69847;SDS011;57143;55.940;37.496;2024-03-23T06:17:14;21.70;;;10.07;;
69847;SDS011;57143;55.940;37.496;2024-03-23T06:19:41;20.38;;;9.00;;
69847;SDS011;57143;55.940;37.496;2024-03-23T06:22:27;23.77;;;9.27;;
69847;SDS011;57143;55.940;37.496;2024-03-23T06:24:55;17.47;;;7.37;;
69847;SDS011;57143;55.940;37.496;2024-03-23T06:27:21;23.83;;;9.77;;
69847;SDS011;57143;55.940;37.496;2024-03-23T06:29:48;15.40;;;7.13;;
69847;SDS011;57143;55.940;37.496;2024-03-23T06:32:15;19.33;;;9.48;;
69847;SDS011;57143;55.940;37.496;2024-03-23T06:34:42;20.35;;;7.57;;
69847;SDS011;57143;55.940;37.496;2024-03-23T06:37:09;20.03;;;7.77;;
69847;SDS011;57143;55.940;37.496;2024-03-23T06:39:38;18.08;;;7.18;;
69847;SDS011;57143;55.940;37.496;2024-03-23T06:42:04;21.30;;;9.13;;
69847;SDS011;57143;55.940;37.496;2024-03-23T06:44:33;24.17;;;10.77;;
69847;SDS011;57143;55.940;37.496;2024-03-23T06:46:59;18.73;;;7.95;;
69847;SDS011;57143;55.940;37.496;2024-03-23T06:49:28;17.87;;;7.83;;
69847;SDS011;57143;55.940;37.496;2024-03-23T06:51:54;18.33;;;7.20;;
69847;SDS011;57143;55.940;37.496;2024-03-23T06:54:22;19.35;;;8.93;;
69847;SDS011;57143;55.940;37.496;2024-03-23T06:56:51;24.75;;;9.35;;
69847;SDS011;57143;55.940;37.496;2024-03-23T06:59:18;15.98;;;7.18;;
69847;SDS011;57143;55.940;37.496;2024-03-23T07:01:47;23.67;;;10.00;;
69847;SDS011;57143;55.940;37.496;2024-03-23T07:04:14;17.10;;;6.88;;
69847;SDS011;57143;55.940;37.496;2024-03-23T07:06:44;16.23;;;7.78;;
69847;SDS011;57143;55.940;37.496;2024-03-23T07:09:11;17.75;;;7.13;;
69847;SDS011;57143;55.940;37.496;2024-03-23T07:11:38;19.80;;;7.45;;
69847;SDS011;57143;55.940;37.496;2024-03-23T07:14:06;17.03;;;7.50;;
69847;SDS011;57143;55.940;37.496;2024-03-23T07:16:33;16.40;;;6.97;;
69847;SDS011;57143;55.940;37.496;2024-03-23T07:19:00;13.18;;;6.28;;
69847;SDS011;57143;55.940;37.496;2024-03-23T07:21:27;15.20;;;6.88;;
69847;SDS011;57143;55.940;37.496;2024-03-23T07:23:54;10.80;;;4.78;;
69847;SDS011;57143;55.940;37.496;2024-03-23T07:26:20;15.93;;;4.93;;
69847;SDS011;57143;55.940;37.496;2024-03-23T07:28:48;14.50;;;5.78;;
69847;SDS011;57143;55.940;37.496;2024-03-23T07:31:16;11.90;;;4.95;;
69847;SDS011;57143;55.940;37.496;2024-03-23T07:33:45;13.40;;;6.53;;
69847;SDS011;57143;55.940;37.496;2024-03-23T07:36:12;13.73;;;6.32;;
69847;SDS011;57143;55.940;37.496;2024-03-23T07:38:40;11.53;;;5.67;;
69847;SDS011;57143;55.940;37.496;2024-03-23T07:41:07;14.43;;;6.18;;
69847;SDS011;57143;55.940;37.496;2024-03-23T07:43:36;14.77;;;5.38;;
69847;SDS011;57143;55.940;37.496;2024-03-23T07:46:03;13.13;;;6.40;;
69847;SDS011;57143;55.940;37.496;2024-03-23T07:48:32;12.98;;;5.50;;
69847;SDS011;57143;55.940;37.496;2024-03-23T07:50:59;11.33;;;4.83;;
69847;SDS011;57143;55.940;37.496;2024-03-23T07:53:28;9.05;;;3.63;;
69847;SDS011;57143;55.940;37.496;2024-03-23T07:55:55;14.52;;;5.88;;
69847;SDS011;57143;55.940;37.496;2024-03-23T07:58:23;12.98;;;5.93;;
69847;SDS011;57143;55.940;37.496;2024-03-23T08:00:50;12.63;;;5.57;;
69847;SDS011;57143;55.940;37.496;2024-03-23T08:03:20;12.47;;;5.10;;
69847;SDS011;57143;55.940;37.496;2024-03-23T08:05:51;9.93;;;4.57;;
69847;SDS011;57143;55.940;37.496;2024-03-23T08:08:18;12.55;;;4.65;;
69847;SDS011;57143;55.940;37.496;2024-03-23T08:10:48;13.98;;;5.57;;
69847;SDS011;57143;55.940;37.496;2024-03-23T08:13:17;12.10;;;5.88;;
69847;SDS011;57143;55.940;37.496;2024-03-23T08:15:49;13.83;;;5.87;;
69847;SDS011;57143;55.940;37.496;2024-03-23T08:18:17;14.68;;;6.90;;
69847;SDS011;57143;55.940;37.496;2024-03-23T08:20:43;10.38;;;5.03;;
69847;SDS011;57143;55.940;37.496;2024-03-23T08:23:12;11.85;;;5.53;;
69847;SDS011;57143;55.940;37.496;2024-03-23T08:25:38;10.48;;;4.88;;
69847;SDS011;57143;55.940;37.496;2024-03-23T08:28:06;15.97;;;5.40;;
69847;SDS011;57143;55.940;37.496;2024-03-23T08:30:34;13.00;;;5.68;;
69847;SDS011;57143;55.940;37.496;2024-03-23T08:33:02;12.02;;;5.60;;
69847;SDS011;57143;55.940;37.496;2024-03-23T08:35:29;10.00;;;5.13;;
69847;SDS011;57143;55.940;37.496;2024-03-23T08:37:56;10.10;;;5.00;;
69847;SDS011;57143;55.940;37.496;2024-03-23T08:40:25;18.00;;;5.63;;
69847;SDS011;57143;55.940;37.496;2024-03-23T08:43:01;13.63;;;5.50;;
69847;SDS011;57143;55.940;37.496;2024-03-23T08:45:27;12.88;;;6.65;;
69847;SDS011;57143;55.940;37.496;2024-03-23T08:47:55;10.57;;;4.72;;
69847;SDS011;57143;55.940;37.496;2024-03-23T08:50:21;13.30;;;5.88;;
69847;SDS011;57143;55.940;37.496;2024-03-23T08:52:50;12.63;;;6.13;;
69847;SDS011;57143;55.940;37.496;2024-03-23T08:55:17;12.77;;;5.82;;
69847;SDS011;57143;55.940;37.496;2024-03-23T08:57:48;15.25;;;4.82;;
69847;SDS011;57143;55.940;37.496;2024-03-23T09:00:15;11.43;;;5.85;;
69847;SDS011;57143;55.940;37.496;2024-03-23T09:02:43;15.68;;;6.07;;
69847;SDS011;57143;55.940;37.496;2024-03-23T09:05:13;10.00;;;4.33;;
69847;SDS011;57143;55.940;37.496;2024-03-23T09:07:41;15.98;;;5.95;;
69847;SDS011;57143;55.940;37.496;2024-03-23T09:10:07;13.55;;;5.78;;
69847;SDS011;57143;55.940;37.496;2024-03-23T09:12:35;11.93;;;5.57;;
69847;SDS011;57143;55.940;37.496;2024-03-23T09:15:03;12.63;;;5.57;;
69847;SDS011;57143;55.940;37.496;2024-03-23T09:17:31;13.93;;;6.07;;
69847;SDS011;57143;55.940;37.496;2024-03-23T09:19:57;13.52;;;6.30;;
69847;SDS011;57143;55.940;37.496;2024-03-23T09:22:24;12.73;;;5.78;;
69847;SDS011;57143;55.940;37.496;2024-03-23T09:24:51;8.55;;;4.07;;
69847;SDS011;57143;55.940;37.496;2024-03-23T09:27:18;11.43;;;4.78;;
69847;SDS011;57143;55.940;37.496;2024-03-23T09:29:44;11.03;;;4.83;;
69847;SDS011;57143;55.940;37.496;2024-03-23T09:32:13;13.02;;;5.88;;
69847;SDS011;57143;55.940;37.496;2024-03-23T09:34:39;8.48;;;3.95;;
69847;SDS011;57143;55.940;37.496;2024-03-23T09:37:07;11.02;;;5.13;;
69847;SDS011;57143;55.940;37.496;2024-03-23T09:39:33;13.18;;;6.22;;
69847;SDS011;57143;55.940;37.496;2024-03-23T09:42:00;13.63;;;5.57;;
69847;SDS011;57143;55.940;37.496;2024-03-23T09:44:27;10.98;;;5.57;;
69847;SDS011;57143;55.940;37.496;2024-03-23T09:46:55;11.68;;;5.28;;
69847;SDS011;57143;55.940;37.496;2024-03-23T09:49:23;12.10;;;5.50;;
69847;SDS011;57143;55.940;37.496;2024-03-23T09:51:50;11.35;;;5.40;;
69847;SDS011;57143;55.940;37.496;2024-03-23T09:54:16;11.10;;;4.53;;
69847;SDS011;57143;55.940;37.496;2024-03-23T09:56:44;11.98;;;4.90;;
69847;SDS011;57143;55.940;37.496;2024-03-23T09:59:10;9.75;;;4.03;;
69847;SDS011;57143;55.940;37.496;2024-03-23T10:01:37;8.27;;;3.95;;
69847;SDS011;57143;55.940;37.496;2024-03-23T10:04:04;11.10;;;5.38;;
69847;SDS011;57143;55.940;37.496;2024-03-23T10:06:36;10.57;;;5.00;;
69847;SDS011;57143;55.940;37.496;2024-03-23T10:09:02;11.95;;;4.90;;
69847;SDS011;57143;55.940;37.496;2024-03-23T10:11:44;12.82;;;5.00;;
69847;SDS011;57143;55.940;37.496;2024-03-23T10:14:16;12.07;;;4.50;;
69847;SDS011;57143;55.940;37.496;2024-03-23T10:16:57;11.43;;;4.68;;
69847;SDS011;57143;55.940;37.496;2024-03-23T10:19:39;11.87;;;5.37;;
69847;SDS011;57143;55.940;37.496;2024-03-23T10:22:08;11.00;;;4.97;;
69847;SDS011;57143;55.940;37.496;2024-03-23T10:24:35;10.25;;;4.30;;
69847;SDS011;57143;55.940;37.496;2024-03-23T10:27:03;11.13;;;4.55;;
69847;SDS011;57143;55.940;37.496;2024-03-23T10:29:29;10.63;;;4.60;;
69847;SDS011;57143;55.940;37.496;2024-03-23T10:32:07;10.87;;;5.07;;
69847;SDS011;57143;55.940;37.496;2024-03-23T10:34:34;9.88;;;4.30;;
69847;SDS011;57143;55.940;37.496;2024-03-23T10:37:02;12.40;;;6.35;;
69847;SDS011;57143;55.940;37.496;2024-03-23T10:39:31;11.82;;;4.97;;
69847;SDS011;57143;55.940;37.496;2024-03-23T10:42:02;11.88;;;5.18;;
69847;SDS011;57143;55.940;37.496;2024-03-23T10:44:29;12.10;;;5.00;;
69847;SDS011;57143;55.940;37.496;2024-03-23T10:46:57;12.88;;;5.00;;
69847;SDS011;57143;55.940;37.496;2024-03-23T10:49:28;12.88;;;4.95;;
69847;SDS011;57143;55.940;37.496;2024-03-23T10:51:57;11.18;;;4.07;;
69847;SDS011;57143;55.940;37.496;2024-03-23T10:54:24;13.07;;;5.65;;
69847;SDS011;57143;55.940;37.496;2024-03-23T10:56:57;10.83;;;4.23;;
69847;SDS011;57143;55.940;37.496;2024-03-23T10:59:27;9.48;;;3.75;;
69847;SDS011;57143;55.940;37.496;2024-03-23T11:01:56;12.23;;;5.22;;
69847;SDS011;57143;55.940;37.496;2024-03-23T11:04:29;11.63;;;5.13;;
69847;SDS011;57143;55.940;37.496;2024-03-23T11:06:58;9.25;;;4.55;;
69847;SDS011;57143;55.940;37.496;2024-03-23T11:09:39;9.30;;;4.43;;
69847;SDS011;57143;55.940;37.496;2024-03-23T11:12:26;12.18;;;4.68;;
69847;SDS011;57143;55.940;37.496;2024-03-23T11:14:53;13.85;;;5.90;;
69847;SDS011;57143;55.940;37.496;2024-03-23T11:17:24;10.65;;;4.93;;
69847;SDS011;57143;55.940;37.496;2024-03-23T11:19:55;12.38;;;5.47;;
69847;SDS011;57143;55.940;37.496;2024-03-23T11:22:42;9.97;;;5.13;;
69847;SDS011;57143;55.940;37.496;2024-03-23T11:25:14;10.45;;;4.35;;
69847;SDS011;57143;55.940;37.496;2024-03-23T11:27:45;10.45;;;4.72;;
69847;SDS011;57143;55.940;37.496;2024-03-23T11:30:12;13.50;;;5.13;;
69847;SDS011;57143;55.940;37.496;2024-03-23T11:32:41;10.23;;;4.43;;
69847;SDS011;57143;55.940;37.496;2024-03-23T11:35:09;11.80;;;4.97;;
69847;SDS011;57143;55.940;37.496;2024-03-23T11:37:37;12.32;;;5.07;;
69847;SDS011;57143;55.940;37.496;2024-03-23T11:42:56;12.70;;;5.85;;
69847;SDS011;57143;55.940;37.496;2024-03-23T11:45:23;11.70;;;5.32;;
69847;SDS011;57143;55.940;37.496;2024-03-23T11:48:01;10.60;;;4.63;;
69847;SDS011;57143;55.940;37.496;2024-03-23T11:50:28;11.23;;;4.78;;
69847;SDS011;57143;55.940;37.496;2024-03-23T11:53:06;12.07;;;4.55;;
69847;SDS011;57143;55.940;37.496;2024-03-23T11:55:45;9.73;;;4.05;;
69847;SDS011;57143;55.940;37.496;2024-03-23T11:58:16;11.20;;;4.60;;
69847;SDS011;57143;55.940;37.496;2024-03-23T12:00:49;11.43;;;5.07;;
69847;SDS011;57143;55.940;37.496;2024-03-23T12:03:18;12.10;;;5.10;;
69847;SDS011;57143;55.940;37.496;2024-03-23T12:05:47;16.88;;;6.93;;
69847;SDS011;57143;55.940;37.496;2024-03-23T12:08:22;11.77;;;4.90;;
69847;SDS011;57143;55.940;37.496;2024-03-23T12:10:50;10.25;;;4.57;;
69847;SDS011;57143;55.940;37.496;2024-03-23T12:13:20;10.00;;;4.77;;
69847;SDS011;57143;55.940;37.496;2024-03-23T12:15:49;10.85;;;4.90;;
69847;SDS011;57143;55.940;37.496;2024-03-23T12:18:17;11.05;;;4.18;;
69847;SDS011;57143;55.940;37.496;2024-03-23T12:20:49;10.05;;;4.63;;
69847;SDS011;57143;55.940;37.496;2024-03-23T12:23:17;11.07;;;4.68;;
69847;SDS011;57143;55.940;37.496;2024-03-23T12:25:43;9.37;;;4.53;;
69847;SDS011;57143;55.940;37.496;2024-03-23T12:28:11;11.95;;;4.90;;
69847;SDS011;57143;55.940;37.496;2024-03-23T12:30:39;10.88;;;4.82;;
69847;SDS011;57143;55.940;37.496;2024-03-23T12:33:10;9.00;;;4.20;;
69847;SDS011;57143;55.940;37.496;2024-03-23T12:35:36;10.90;;;4.95;;
69847;SDS011;57143;55.940;37.496;2024-03-23T12:38:07;10.73;;;4.77;;
69847;SDS011;57143;55.940;37.496;2024-03-23T12:40:33;9.70;;;4.07;;
69847;SDS011;57143;55.940;37.496;2024-03-23T12:43:01;8.60;;;3.72;;
69847;SDS011;57143;55.940;37.496;2024-03-23T12:45:27;12.20;;;4.97;;
69847;SDS011;57143;55.940;37.496;2024-03-23T12:47:56;10.57;;;4.53;;
69847;SDS011;57143;55.940;37.496;2024-03-23T12:50:22;12.07;;;4.60;;
69847;SDS011;57143;55.940;37.496;2024-03-23T12:52:50;11.55;;;4.70;;
69847;SDS011;57143;55.940;37.496;2024-03-23T12:55:16;10.10;;;3.92;;
69847;SDS011;57143;55.940;37.496;2024-03-23T12:57:45;10.02;;;4.43;;
69847;SDS011;57143;55.940;37.496;2024-03-23T13:00:12;11.63;;;5.22;;
69847;SDS011;57143;55.940;37.496;2024-03-23T13:02:41;9.70;;;4.57;;
69847;SDS011;57143;55.940;37.496;2024-03-23T13:05:09;9.35;;;3.75;;
69847;SDS011;57143;55.940;37.496;2024-03-23T13:07:36;9.73;;;4.38;;
69847;SDS011;57143;55.940;37.496;2024-03-23T13:10:03;12.98;;;6.07;;
69847;SDS011;57143;55.940;37.496;2024-03-23T13:12:31;11.70;;;4.53;;
69847;SDS011;57143;55.940;37.496;2024-03-23T13:14:58;10.50;;;4.67;;
69847;SDS011;57143;55.940;37.496;2024-03-23T13:17:32;11.73;;;4.53;;
69847;SDS011;57143;55.940;37.496;2024-03-23T13:19:58;11.73;;;5.50;;
69847;SDS011;57143;55.940;37.496;2024-03-23T13:22:27;13.52;;;5.63;;
69847;SDS011;57143;55.940;37.496;2024-03-23T13:24:54;12.15;;;5.75;;
69847;SDS011;57143;55.940;37.496;2024-03-23T13:27:21;11.60;;;5.67;;
69847;SDS011;57143;55.940;37.496;2024-03-23T13:29:47;11.55;;;5.53;;
69847;SDS011;57143;55.940;37.496;2024-03-23T13:32:16;10.93;;;5.40;;
69847;SDS011;57143;55.940;37.496;2024-03-23T13:34:42;11.80;;;4.72;;
69847;SDS011;57143;55.940;37.496;2024-03-23T13:37:09;12.90;;;5.47;;
69847;SDS011;57143;55.940;37.496;2024-03-23T13:39:37;12.87;;;6.03;;
69847;SDS011;57143;55.940;37.496;2024-03-23T13:42:07;9.85;;;4.97;;
69847;SDS011;57143;55.940;37.496;2024-03-23T13:44:34;15.02;;;5.93;;
69847;SDS011;57143;55.940;37.496;2024-03-23T13:47:02;11.55;;;5.05;;
69847;SDS011;57143;55.940;37.496;2024-03-23T13:49:29;12.70;;;5.63;;
69847;SDS011;57143;55.940;37.496;2024-03-23T13:51:58;15.20;;;6.10;;
69847;SDS011;57143;55.940;37.496;2024-03-23T13:54:25;15.13;;;6.72;;
69847;SDS011;57143;55.940;37.496;2024-03-23T13:56:55;14.00;;;5.13;;
69847;SDS011;57143;55.940;37.496;2024-03-23T13:59:22;13.70;;;4.88;;
69847;SDS011;57143;55.940;37.496;2024-03-23T14:01:50;12.10;;;5.55;;
69847;SDS011;57143;55.940;37.496;2024-03-23T14:04:18;11.57;;;6.10;;
69847;SDS011;57143;55.940;37.496;2024-03-23T14:06:46;12.52;;;5.90;;
69847;SDS011;57143;55.940;37.496;2024-03-23T14:09:13;13.52;;;5.45;;
69847;SDS011;57143;55.940;37.496;2024-03-23T14:11:47;12.73;;;5.47;;
69847;SDS011;57143;55.940;37.496;2024-03-23T14:14:15;13.48;;;6.07;;
69847;SDS011;57143;55.940;37.496;2024-03-23T14:16:43;12.63;;;5.57;;
69847;SDS011;57143;55.940;37.496;2024-03-23T14:19:10;13.93;;;5.72;;
69847;SDS011;57143;55.940;37.496;2024-03-23T14:21:37;13.43;;;5.82;;
69847;SDS011;57143;55.940;37.496;2024-03-23T14:24:04;13.02;;;5.85;;
69847;SDS011;57143;55.940;37.496;2024-03-23T14:26:32;12.57;;;5.20;;
69847;SDS011;57143;55.940;37.496;2024-03-23T14:28:59;14.63;;;5.93;;
69847;SDS011;57143;55.940;37.496;2024-03-23T14:31:28;10.95;;;5.30;;
69847;SDS011;57143;55.940;37.496;2024-03-23T14:33:54;11.77;;;5.22;;
69847;SDS011;57143;55.940;37.496;2024-03-23T14:36:21;12.73;;;6.10;;
69847;SDS011;57143;55.940;37.496;2024-03-23T14:38:48;13.48;;;5.97;;
69847;SDS011;57143;55.940;37.496;2024-03-23T14:41:15;11.00;;;5.57;;
69847;SDS011;57143;55.940;37.496;2024-03-23T14:43:42;13.55;;;5.40;;
69847;SDS011;57143;55.940;37.496;2024-03-23T14:46:12;12.18;;;5.32;;
69847;SDS011;57143;55.940;37.496;2024-03-23T14:48:42;10.23;;;4.57;;
69847;SDS011;57143;55.940;37.496;2024-03-23T14:51:11;9.65;;;3.95;;
69847;SDS011;57143;55.940;37.496;2024-03-23T14:53:39;12.00;;;5.67;;
69847;SDS011;57143;55.940;37.496;2024-03-23T14:56:08;11.48;;;5.18;;
69847;SDS011;57143;55.940;37.496;2024-03-23T14:58:35;10.25;;;3.95;;
69847;SDS011;57143;55.940;37.496;2024-03-23T15:01:03;13.13;;;5.15;;
69847;SDS011;57143;55.940;37.496;2024-03-23T15:03:31;12.57;;;4.43;;
69847;SDS011;57143;55.940;37.496;2024-03-23T15:06:00;12.07;;;4.83;;
69847;SDS011;57143;55.940;37.496;2024-03-23T15:08:27;11.88;;;5.20;;
69847;SDS011;57143;55.940;37.496;2024-03-23T15:10:58;13.10;;;4.70;;
69847;SDS011;57143;55.940;37.496;2024-03-23T15:13:24;12.43;;;4.95;;
69847;SDS011;57143;55.940;37.496;2024-03-23T15:15:52;10.40;;;4.40;;
69847;SDS011;57143;55.940;37.496;2024-03-23T15:18:21;12.70;;;4.90;;
69847;SDS011;57143;55.940;37.496;2024-03-23T15:20:53;9.68;;;4.40;;
69847;SDS011;57143;55.940;37.496;2024-03-23T15:23:21;10.93;;;4.70;;